Time;durP1;ratioP1;P1;durP2;ratioP2;P2;SDS_P1;SDS_P2;PMS_P1;PMS_P2;Temp;Humidity;BMP_temperature;BMP_pressure;BME280_temperature;BME280_humidity;BME280_pressure;Samples;Min_cycle;Max_cycle;Signal;HPM_P1;HPM_P2
2022/04/25 00:00:10;;;;;;;;;;;;;;;22.74;nan;94451.63;2065467;28;962;-63
2022/04/25 00:01:13;;;;;;;;;;;;;;;22.74;nan;94452.44;2062115;28;1129;-61
2022/04/25 00:02:14;;;;;;;;;;;;;;;22.75;nan;94450.56;2059954;28;1110;-59
2022/04/25 00:03:18;;;;;;;;;;;;;;;22.73;nan;94456.13;2065524;28;1977;-59
2022/04/25 00:04:20;;;;;;;;;;;;;;;22.73;nan;94455.31;2064562;28;1583;-60
2022/04/25 00:05:22;;;;;;;;;;;;;;;22.69;nan;94446.94;2067132;28;1498;-59
2022/04/25 00:06:24;;;;;;;;;;;;;;;22.70;nan;94450.41;2063097;28;1740;-60
2022/04/25 00:07:26;;;;;;;;;;;;;;;22.70;nan;94453.09;2051597;28;1618;-59
2022/04/25 00:08:28;;;;;;;;;;;;;;;22.69;nan;94456.84;2063473;28;1677;-59
2022/04/25 00:09:32;;;;;;;;;;;;;;;22.68;nan;94449.84;2065423;28;1140;-60
2022/04/25 00:10:33;;;;;;;;;;;;;;;22.67;nan;94450.91;2069439;28;1662;-59
2022/04/25 00:11:39;;;;;;;;;;;;;;;22.67;nan;94450.91;2060110;28;1566;-57
2022/04/25 00:12:40;;;;;;;;;;;;;;;22.65;nan;94451.16;2061172;28;1061;-58
2022/04/25 00:13:42;;;;;;;;;;;;;;;22.64;nan;94452.19;2067440;28;1354;-59
2022/04/25 00:14:44;;;;;;;;;;;;;;;22.65;nan;94453.00;2073375;28;1233;-59
2022/04/25 00:15:46;;;;;;;;;;;;;;;22.64;nan;94451.38;2070391;28;1440;-59
2022/04/25 00:16:47;;;;;;;;;;;;;;;22.63;nan;94453.25;2065585;28;1013;-59
2022/04/25 00:17:49;;;;;;;;;;;;;;;22.62;nan;94454.28;2067127;28;1008;-58
2022/04/25 00:18:51;;;;;;;;;;;;;;;22.63;nan;94460.47;2068116;28;1447;-58
2022/04/25 00:19:52;;;;;;;;;;;;;;;22.63;nan;94455.13;2068048;28;1771;-58
2022/04/25 00:20:55;;;;;;;;;;;;;;;22.64;nan;94459.41;2067321;28;1042;-58
2022/04/25 00:21:57;;;;;;;;;;;;;;;22.63;nan;94460.47;2066786;28;1176;-59
2022/04/25 00:23:04;;;;;;;;;;;;;;;22.62;nan;94458.81;2068181;28;1626;-58
2022/04/25 00:24:08;;;;;;;;;;;;;;;22.63;nan;94460.47;2060170;28;1607;-60
2022/04/25 00:25:09;;;;;;;;;;;;;;;22.62;nan;94462.31;2061279;28;1642;-58
2022/04/25 00:26:12;;;;;;;;;;;;;;;22.62;nan;94465.00;2072817;28;1708;-58
2022/04/25 00:27:17;;;;;;;;;;;;;;;22.61;nan;94463.38;2074224;28;1438;-58
2022/04/25 00:28:26;;;;;;;;;;;;;;;22.62;nan;94466.88;2066009;28;1834;-58
2022/04/25 00:29:28;;;;;;;;;;;;;;;22.61;nan;94467.91;2058970;28;1525;-58
2022/04/25 00:30:30;;;;;;;;;;;;;;;22.61;nan;94471.41;2074622;28;997;-59
2022/04/25 00:31:32;;;;;;;;;;;;;;;22.63;nan;94471.19;2075221;28;1085;-58
2022/04/25 00:32:34;;;;;;;;;;;;;;;22.62;nan;94472.22;2066317;28;1050;-58
2022/04/25 00:33:35;;;;;;;;;;;;;;;22.62;nan;94480.25;2065194;28;1433;-58
2022/04/25 00:34:37;;;;;;;;;;;;;;;22.61;nan;94475.97;2074180;28;1101;-59
2022/04/25 00:35:39;;;;;;;;;;;;;;;22.61;nan;94473.28;2063525;28;1688;-60
2022/04/25 00:36:41;;;;;;;;;;;;;;;22.61;nan;94481.31;2062071;28;1083;-59
2022/04/25 00:37:42;;;;;;;;;;;;;;;22.63;nan;94473.88;2066712;28;1192;-60
2022/04/25 00:38:44;;;;;;;;;;;;;;;22.64;nan;94475.47;2066824;28;1043;-60
2022/04/25 00:39:46;;;;;;;;;;;;;;;22.63;nan;94477.34;2066617;28;1006;-60
2022/04/25 00:40:47;;;;;;;;;;;;;;;22.64;nan;94472.81;2065992;28;1623;-59
2022/04/25 00:41:49;;;;;;;;;;;;;;;22.63;nan;94474.66;2073656;28;1497;-59
2022/04/25 00:42:51;;;;;;;;;;;;;;;22.63;nan;94472.00;2073970;28;1635;-59
2022/04/25 00:44:00;;;;;;;;;;;;;;;22.63;nan;94476.53;2074879;28;1910;-60
2022/04/25 00:45:02;;;;;;;;;;;;;;;22.63;nan;94482.69;2074489;28;1128;-59
2022/04/25 00:46:05;;;;;;;;;;;;;;;22.62;nan;94481.06;2074830;28;990;-59
2022/04/25 00:47:08;;;;;;;;;;;;;;;22.61;nan;94481.31;2069636;28;1709;-60
2022/04/25 00:48:10;;;;;;;;;;;;;;;22.62;nan;94483.72;2069009;28;1144;-59
2022/04/25 00:49:14;;;;;;;;;;;;;;;22.62;nan;94485.59;2062826;28;1668;-60
2022/04/25 00:50:16;;;;;;;;;;;;;;;22.62;nan;94475.69;2066278;28;1348;-60
2022/04/25 00:51:18;;;;;;;;;;;;;;;22.64;nan;94478.16;2074156;28;1669;-60
2022/04/25 00:52:21;;;;;;;;;;;;;;;22.65;nan;94485.13;2074804;28;982;-60
2022/04/25 00:53:22;;;;;;;;;;;;;;;22.64;nan;94478.16;2063971;28;1679;-60
2022/04/25 00:54:24;;;;;;;;;;;;;;;22.63;nan;94466.63;2066209;28;1013;-60
2022/04/25 00:55:26;;;;;;;;;;;;;;;22.64;nan;94470.13;2074030;28;1644;-58
2022/04/25 00:56:28;;;;;;;;;;;;;;;22.63;nan;94469.31;2073537;28;1514;-59
2022/04/25 00:57:30;;;;;;;;;;;;;;;22.63;nan;94473.88;2074530;28;1779;-58
2022/04/25 00:58:33;;;;;;;;;;;;;;;22.63;nan;94476.53;2068489;28;1783;-61
2022/04/25 00:59:35;;;;;;;;;;;;;;;22.63;nan;94468.50;2069318;28;1545;-59
2022/04/25 01:00:37;;;;;;;;;;;;;;;22.64;nan;94467.44;2074252;28;910;-59
2022/04/25 01:01:39;;;;;;;;;;;;;;;22.62;nan;94472.22;2067674;28;1430;-58
2022/04/25 01:02:41;;;;;;;;;;;;;;;22.54;nan;94460.03;2064120;28;1074;-59
2022/04/25 01:03:42;;;;;;;;;;;;;;;22.62;nan;94470.34;2065866;28;1984;-59
2022/04/25 01:04:44;;;;;;;;;;;;;;;22.61;nan;94466.06;2075575;28;1014;-59
2022/04/25 01:05:46;;;;;;;;;;;;;;;22.62;nan;94462.31;2070579;28;1526;-58
2022/04/25 01:06:48;;;;;;;;;;;;;;;22.62;nan;94464.19;2070427;28;1545;-59
2022/04/25 01:07:49;;;;;;;;;;;;;;;22.62;nan;94474.88;2059312;28;1698;-59
2022/04/25 01:08:51;;;;;;;;;;;;;;;22.62;nan;94467.66;2061794;28;1680;-60
2022/04/25 01:09:54;;;;;;;;;;;;;;;22.62;nan;94461.50;2070057;28;1188;-60
2022/04/25 01:10:56;;;;;;;;;;;;;;;22.62;nan;94461.50;2063473;28;1534;-60
2022/04/25 01:11:58;;;;;;;;;;;;;;;22.62;nan;94458.81;2066666;28;819;-60
2022/04/25 01:13:00;;;;;;;;;;;;;;;22.62;nan;94462.31;2066876;28;1006;-59
2022/04/25 01:14:12;;;;;;;;;;;;;;;22.63;nan;94465.81;2071778;28;1569;-59
2022/04/25 01:15:13;;;;;;;;;;;;;;;22.64;nan;94467.44;2074544;28;1032;-59
2022/04/25 01:16:15;;;;;;;;;;;;;;;22.64;nan;94462.09;2074107;28;1026;-58
2022/04/25 01:17:16;;;;;;;;;;;;;;;22.63;nan;94458.59;2074051;28;1001;-59
2022/04/25 01:18:18;;;;;;;;;;;;;;;22.62;nan;94453.47;2074296;28;1018;-58
2022/04/25 01:19:20;;;;;;;;;;;;;;;22.62;nan;94454.28;2074416;28;1341;-59
2022/04/25 01:20:21;;;;;;;;;;;;;;;22.62;nan;94450.78;2074124;28;1653;-58
2022/04/25 01:21:23;;;;;;;;;;;;;;;22.62;nan;94453.47;2059352;28;1670;-58
2022/04/25 01:22:31;;;;;;;;;;;;;;;22.62;nan;94448.13;2065071;28;1073;-59
2022/04/25 01:27:34;;;;;;;;;;;;;;;22.63;nan;94431.03;2066532;28;1041;-59
2022/04/25 01:28:36;;;;;;;;;;;;;;;22.63;nan;94423.78;2071194;28;1501;-59
2022/04/25 01:29:38;;;;;;;;;;;;;;;22.62;nan;94427.50;2074550;28;1353;-60
2022/04/25 01:30:42;;;;;;;;;;;;;;;22.64;nan;94421.94;2073939;28;1010;-61
2022/04/25 01:31:44;;;;;;;;;;;;;;;22.63;nan;94420.31;2073873;28;1135;-60
2022/04/25 01:32:46;;;;;;;;;;;;;;;22.64;nan;94424.59;2065978;28;1315;-63
2022/04/25 01:33:48;;;;;;;;;;;;;;;22.65;nan;94424.38;2073132;28;1283;-60
2022/04/25 01:34:50;;;;;;;;;;;;;;;22.65;nan;94421.69;2073965;28;1022;-58
2022/04/25 01:35:52;;;;;;;;;;;;;;;22.65;nan;94420.84;2064330;28;1506;-58
2022/04/25 01:36:54;;;;;;;;;;;;;;;22.66;nan;94417.16;2065946;28;983;-59
2022/04/25 01:37:57;;;;;;;;;;;;;;;22.65;nan;94413.66;2069942;28;1692;-60
2022/04/25 01:38:59;;;;;;;;;;;;;;;22.66;nan;94414.47;2066643;28;1054;-60
2022/04/25 01:40:01;;;;;;;;;;;;;;;22.66;nan;94407.25;2065975;28;882;-59
2022/04/25 01:41:03;;;;;;;;;;;;;;;22.73;nan;94409.81;2073564;28;1448;-60
2022/04/25 01:42:05;;;;;;;;;;;;;;;22.73;nan;94412.47;2072766;28;1406;-63
2022/04/25 01:43:07;;;;;;;;;;;;;;;22.73;nan;94407.13;2065804;28;1088;-60
2022/04/25 01:44:08;;;;;;;;;;;;;;;22.78;nan;94415.25;2057999;28;1982;-62
2022/04/25 01:45:10;;;;;;;;;;;;;;;22.91;nan;94404.25;2065574;28;1102;-64
2022/04/25 01:46:12;;;;;;;;;;;;;;;23.01;nan;94404.41;2065636;28;1026;-61
2022/04/25 01:47:15;;;;;;;;;;;;;;;23.09;nan;94405.09;2057343;28;1014;-61
2022/04/25 01:48:16;;;;;;;;;;;;;;;23.15;nan;94406.78;2057936;28;999;-61
2022/04/25 01:49:18;;;;;;;;;;;;;;;23.20;nan;94398.84;2071693;28;1567;-62
2022/04/25 01:50:20;;;;;;;;;;;;;;;23.22;nan;94397.56;2065571;28;1382;-60
2022/04/25 01:51:22;;;;;;;;;;;;;;;23.12;nan;94396.56;2069557;28;1505;-59
2022/04/25 01:52:27;;;;;;;;;;;;;;;23.01;nan;94404.41;2066005;28;1674;-59
2022/04/25 01:53:29;;;;;;;;;;;;;;;22.92;nan;94397.84;2072416;28;1553;-59
2022/04/25 01:54:32;;;;;;;;;;;;;;;22.87;nan;94387.03;2072990;28;1720;-62
2022/04/25 01:55:34;;;;;;;;;;;;;;;22.83;nan;94385.91;2064321;28;1573;-63
2022/04/25 01:56:36;;;;;;;;;;;;;;;22.80;nan;94391.72;2068800;28;1504;-64
2022/04/25 01:57:38;;;;;;;;;;;;;;;22.79;nan;94392.78;2073354;28;1583;-64
2022/04/25 01:58:39;;;;;;;;;;;;;;;22.77;nan;94398.38;2074004;28;1639;-64
2022/04/25 01:59:42;;;;;;;;;;;;;;;22.76;nan;94401.28;2074827;28;1081;-65
2022/04/25 02:00:44;;;;;;;;;;;;;;;22.74;nan;94398.06;2073418;28;1546;-64
2022/04/25 02:01:46;;;;;;;;;;;;;;;22.74;nan;94398.06;2070872;28;1752;-64
2022/04/25 02:02:47;;;;;;;;;;;;;;;22.73;nan;94394.53;2069573;28;1663;-64
2022/04/25 02:03:49;;;;;;;;;;;;;;;22.72;nan;94390.25;2073307;28;1550;-65
2022/04/25 02:04:51;;;;;;;;;;;;;;;22.72;nan;94400.16;2072970;28;1898;-64
2022/04/25 02:05:52;;;;;;;;;;;;;;;22.72;nan;94398.28;2066257;28;1686;-64
2022/04/25 02:06:54;;;;;;;;;;;;;;;22.72;nan;94392.13;2057246;28;1524;-65
2022/04/25 02:07:56;;;;;;;;;;;;;;;22.71;nan;94393.19;2065771;28;1662;-61
2022/04/25 02:08:57;;;;;;;;;;;;;;;22.70;nan;94389.66;2070820;28;1837;-63
2022/04/25 02:09:59;;;;;;;;;;;;;;;22.72;nan;94386.75;2074241;28;1088;-65
2022/04/25 02:11:19;;;;;;;;;;;;;;;22.72;nan;94384.09;2072860;28;1653;-65
2022/04/25 02:12:21;;;;;;;;;;;;;;;22.71;nan;94387.81;2065743;28;1046;-65
2022/04/25 02:13:23;;;;;;;;;;;;;;;22.72;nan;94384.09;2065757;28;998;-66
2022/04/25 02:14:29;;;;;;;;;;;;;;;22.72;nan;94384.09;2073071;28;1537;-63
2022/04/25 02:15:31;;;;;;;;;;;;;;;22.70;nan;94378.97;2069340;28;1499;-64
2022/04/25 02:16:33;;;;;;;;;;;;;;;22.70;nan;94380.78;2073403;28;1826;-65
2022/04/25 02:17:35;;;;;;;;;;;;;;;22.69;nan;94380.00;2069507;28;1093;-64
2022/04/25 02:18:37;;;;;;;;;;;;;;;22.61;nan;94369.66;2069354;28;1075;-65
2022/04/25 02:19:39;;;;;;;;;;;;;;;22.69;nan;94381.84;2073893;28;1095;-66
2022/04/25 02:20:41;;;;;;;;;;;;;;;22.69;nan;94384.53;2074241;28;1165;-65
2022/04/25 02:21:43;;;;;;;;;;;;;;;22.70;nan;94391.50;2074180;28;1066;-65
2022/04/25 02:22:45;;;;;;;;;;;;;;;22.69;nan;94393.38;2071653;28;1512;-65
2022/04/25 02:23:46;;;;;;;;;;;;;;;22.70;nan;94388.81;2064148;28;1462;-65
2022/04/25 02:24:48;;;;;;;;;;;;;;;22.70;nan;94386.16;2065071;28;1985;-64
2022/04/25 02:25:49;;;;;;;;;;;;;;;22.69;nan;94382.66;2074205;28;990;-65
2022/04/25 02:26:51;;;;;;;;;;;;;;;22.69;nan;94382.66;2073692;28;1718;-64
2022/04/25 02:27:53;;;;;;;;;;;;;;;22.68;nan;94377.53;2065403;28;1211;-64
2022/04/25 02:28:54;;;;;;;;;;;;;;;22.67;nan;94384.75;2061380;28;1033;-62
2022/04/25 02:29:59;;;;;;;;;;;;;;;22.69;nan;94381.84;2065835;28;1628;-68
2022/04/25 02:31:01;;;;;;;;;;;;;;;22.72;nan;94386.75;2073546;28;1495;-67
2022/04/25 02:32:03;;;;;;;;;;;;;;;22.73;nan;94385.69;2072577;28;1546;-66
2022/04/25 02:33:05;;;;;;;;;;;;;;;22.74;nan;94393.50;2074229;28;1140;-68
2022/04/25 02:34:06;;;;;;;;;;;;;;;22.76;nan;94390.56;2073986;28;1093;-68
2022/04/25 02:35:08;;;;;;;;;;;;;;;22.78;nan;94389.28;2074211;28;1116;-71
2022/04/25 02:36:10;;;;;;;;;;;;;;;22.91;nan;94384.69;2073638;28;1674;-66
2022/04/25 02:37:11;;;;;;;;;;;;;;;23.00;nan;94386.72;2073346;28;1846;-70
2022/04/25 02:38:13;;;;;;;;;;;;;;;23.06;nan;94387.63;2074351;28;1070;-72
2022/04/25 02:39:15;;;;;;;;;;;;;;;23.12;nan;94393.88;2073473;28;1058;-71
2022/04/25 02:40:16;;;;;;;;;;;;;;;23.15;nan;94398.75;2066622;28;1488;-70
2022/04/25 02:41:18;;;;;;;;;;;;;;;23.16;nan;94390.47;2061312;28;1200;-71
2022/04/25 02:42:20;;;;;;;;;;;;;;;23.19;nan;94389.16;2065869;28;1112;-71
2022/04/25 02:43:21;;;;;;;;;;;;;;;23.21;nan;94392.41;2066187;28;1112;-71
2022/04/25 02:44:23;;;;;;;;;;;;;;;23.22;nan;94383.34;2072027;28;1660;-71
2022/04/25 02:45:24;;;;;;;;;;;;;;;23.23;nan;94395.69;2064659;28;1970;-71
2022/04/25 02:46:26;;;;;;;;;;;;;;;23.23;nan;94395.69;2070031;28;1477;-72
2022/04/25 02:47:28;;;;;;;;;;;;;;;23.26;nan;94402.41;2070088;28;1701;-72
2022/04/25 02:48:30;;;;;;;;;;;;;;;23.25;nan;94393.56;2074287;28;1015;-70
2022/04/25 02:49:32;;;;;;;;;;;;;;;23.25;nan;94396.25;2074036;28;1240;-72
2022/04/25 02:50:33;;;;;;;;;;;;;;;23.24;nan;94399.97;2073187;28;1608;-73
2022/04/25 02:51:35;;;;;;;;;;;;;;;23.24;nan;94399.97;2065938;28;1612;-70
2022/04/25 02:52:36;;;;;;;;;;;;;;;23.24;nan;94397.28;2061533;28;1722;-72
2022/04/25 02:53:38;;;;;;;;;;;;;;;23.23;nan;94396.47;2074063;28;1040;-71
2022/04/25 02:54:40;;;;;;;;;;;;;;;23.25;nan;94393.56;2072870;28;1482;-72
2022/04/25 02:55:41;;;;;;;;;;;;;;;23.25;nan;94388.22;2069672;28;1500;-72
2022/04/25 02:56:43;;;;;;;;;;;;;;;23.24;nan;94389.25;2073072;28;1412;-71
2022/04/25 02:57:45;;;;;;;;;;;;;;;23.25;nan;94385.53;2065214;28;1013;-72
2022/04/25 02:58:46;;;;;;;;;;;;;;;23.24;nan;94382.00;2057664;28;1036;-72
2022/04/25 02:59:48;;;;;;;;;;;;;;;23.23;nan;94372.38;2057168;28;1172;-69
2022/04/25 03:00:50;;;;;;;;;;;;;;;23.26;nan;94376.44;2065203;28;998;-69
2022/04/25 03:01:52;;;;;;;;;;;;;;;23.26;nan;94368.38;2073366;28;1065;-69
2022/04/25 03:02:54;;;;;;;;;;;;;;;23.26;nan;94362.22;2072277;28;1101;-69
2022/04/25 03:03:55;;;;;;;;;;;;;;;23.26;nan;94356.84;2066460;28;1471;-68
2022/04/25 03:04:57;;;;;;;;;;;;;;;23.27;nan;94358.47;2064818;28;1902;-70
2022/04/25 03:05:59;;;;;;;;;;;;;;;23.26;nan;94354.97;2065427;28;1052;-70
2022/04/25 03:07:01;;;;;;;;;;;;;;;23.28;nan;94357.41;2073090;28;1092;-71
2022/04/25 03:08:03;;;;;;;;;;;;;;;23.27;nan;94355.78;2073859;28;1002;-69
2022/04/25 03:09:05;;;;;;;;;;;;;;;23.29;nan;94357.16;2063943;28;1705;-70
2022/04/25 03:10:06;;;;;;;;;;;;;;;23.27;nan;94356.59;2067535;28;1467;-69
2022/04/25 03:11:09;;;;;;;;;;;;;;;23.27;nan;94353.91;2073357;28;1423;-69
2022/04/25 03:12:11;;;;;;;;;;;;;;;23.27;nan;94356.59;2072968;28;1588;-67
2022/04/25 03:13:14;;;;;;;;;;;;;;;23.28;nan;94352.03;2073889;28;1113;-69
2022/04/25 03:14:15;;;;;;;;;;;;;;;23.27;nan;94359.28;2071649;28;1392;-65
2022/04/25 03:15:17;;;;;;;;;;;;;;;23.27;nan;94358.47;2067733;28;1674;-69
2022/04/25 03:16:19;;;;;;;;;;;;;;;23.27;nan;94364.63;2072320;28;1551;-69
2022/04/25 03:17:21;;;;;;;;;;;;;;;23.28;nan;94355.56;2073649;28;1010;-69
2022/04/25 03:18:22;;;;;;;;;;;;;;;23.30;nan;94356.09;2073864;28;1156;-69
2022/04/25 03:19:24;;;;;;;;;;;;;;;23.31;nan;94360.44;2073832;28;1289;-68
2022/04/25 03:20:25;;;;;;;;;;;;;;;23.32;nan;94366.59;2074075;28;1003;-68
2022/04/25 03:21:28;;;;;;;;;;;;;;;23.33;nan;94365.53;2073925;28;1045;-68
2022/04/25 03:22:30;;;;;;;;;;;;;;;23.29;nan;94362.53;2073877;28;979;-67
2022/04/25 03:23:31;;;;;;;;;;;;;;;23.34;nan;94362.63;2072851;28;1729;-67
2022/04/25 03:24:33;;;;;;;;;;;;;;;23.32;nan;94356.69;2073981;28;985;-64
2022/04/25 03:25:36;;;;;;;;;;;;;;;23.32;nan;94356.69;2072370;28;1971;-64
2022/04/25 03:26:39;;;;;;;;;;;;;;;23.29;nan;94354.50;2065580;28;1593;-64
2022/04/25 03:27:41;;;;;;;;;;;;;;;23.19;nan;94362.34;2072847;28;1475;-65
2022/04/25 03:28:42;;;;;;;;;;;;;;;23.12;nan;94361.72;2069217;28;1458;-63
2022/04/25 03:29:44;;;;;;;;;;;;;;;23.08;nan;94361.41;2065686;28;1077;-63
2022/04/25 03:30:46;;;;;;;;;;;;;;;23.01;nan;94361.53;2065206;28;1010;-62
2022/04/25 03:31:48;;;;;;;;;;;;;;;22.98;nan;94364.72;2065442;28;801;-64
2022/04/25 03:32:50;;;;;;;;;;;;;;;22.95;nan;94361.72;2065890;28;1034;-64
2022/04/25 03:33:51;;;;;;;;;;;;;;;22.94;nan;94362.78;2070392;28;1768;-66
2022/04/25 03:34:53;;;;;;;;;;;;;;;22.91;nan;94364.06;2073877;28;1026;-64
2022/04/25 03:35:55;;;;;;;;;;;;;;;22.90;nan;94375.81;2073005;28;1540;-64
2022/04/25 03:36:57;;;;;;;;;;;;;;;22.88;nan;94377.94;2072028;28;1582;-63
2022/04/25 03:37:59;;;;;;;;;;;;;;;22.87;nan;94372.81;2066592;28;1706;-64
2022/04/25 03:39:00;;;;;;;;;;;;;;;22.86;nan;94377.38;2073064;28;1167;-63
2022/04/25 03:40:04;;;;;;;;;;;;;;;22.86;nan;94380.06;2070114;28;1425;-63
2022/04/25 03:41:07;;;;;;;;;;;;;;;22.85;nan;94372.25;2073929;28;1052;-64
2022/04/25 03:42:09;;;;;;;;;;;;;;;22.85;nan;94374.91;2072982;28;1521;-65
2022/04/25 03:43:11;;;;;;;;;;;;;;;22.83;nan;94375.19;2073931;28;1037;-63
2022/04/25 03:44:12;;;;;;;;;;;;;;;22.83;nan;94369.81;2073744;28;1026;-65
2022/04/25 03:45:18;;;;;;;;;;;;;;;22.83;nan;94374.38;2073926;28;1918;-65
2022/04/25 03:46:19;;;;;;;;;;;;;;;22.82;nan;94378.88;2073227;28;1022;-64
2022/04/25 03:47:21;;;;;;;;;;;;;;;22.82;nan;94389.59;2073617;28;1018;-64
2022/04/25 03:48:22;;;;;;;;;;;;;;;22.83;nan;94391.25;2064511;28;1719;-63
2022/04/25 03:49:24;;;;;;;;;;;;;;;22.82;nan;94386.94;2067136;28;1673;-64
2022/04/25 03:50:26;;;;;;;;;;;;;;;22.82;nan;94391.47;2072817;28;1759;-64
2022/04/25 03:51:29;;;;;;;;;;;;;;;22.81;nan;94392.53;2070886;28;1623;-64
2022/04/25 03:52:30;;;;;;;;;;;;;;;22.82;nan;94392.28;2071691;28;1723;-64
2022/04/25 03:53:32;;;;;;;;;;;;;;;22.81;nan;94393.34;2075156;28;1029;-63
2022/04/25 03:57:14;;;;;;;;;;;;;;;22.80;nan;94394.41;2075280;28;1272;-64
2022/04/25 03:58:16;;;;;;;;;;;;;;;22.79;nan;94398.13;2075013;28;1167;-64
2022/04/25 03:59:17;;;;;;;;;;;;;;;22.80;nan;94397.09;2075251;28;1104;-63
2022/04/25 04:00:19;;;;;;;;;;;;;;;22.79;nan;94392.78;2069128;28;1611;-58
2022/04/25 04:01:21;;;;;;;;;;;;;;;22.78;nan;94405.34;2071826;28;1073;-64
2022/04/25 04:02:23;;;;;;;;;;;;;;;22.78;nan;94394.63;2074358;28;1702;-64
2022/04/25 04:03:25;;;;;;;;;;;;;;;22.78;nan;94400.00;2065531;28;1749;-64
2022/04/25 04:04:27;;;;;;;;;;;;;;;22.78;nan;94396.50;2066530;28;986;-64
2022/04/25 04:05:29;;;;;;;;;;;;;;;22.79;nan;94404.31;2067040;28;1947;-64
2022/04/25 04:06:31;;;;;;;;;;;;;;;22.79;nan;94406.16;2067193;28;1096;-62
2022/04/25 04:07:33;;;;;;;;;;;;;;;22.77;nan;94406.41;2073452;28;1516;-63
2022/04/25 04:08:35;;;;;;;;;;;;;;;22.79;nan;94403.47;2070631;28;1729;-64
2022/04/25 04:09:46;;;;;;;;;;;;;;;22.78;nan;94405.34;2074449;28;1776;-63
2022/04/25 04:10:47;;;;;;;;;;;;;;;22.79;nan;94411.50;2073179;28;1611;-63
2022/04/25 04:11:49;;;;;;;;;;;;;;;22.77;nan;94408.28;2066443;28;1594;-58
2022/04/25 04:12:51;;;;;;;;;;;;;;;22.79;nan;94416.88;2074532;28;1707;-64
2022/04/25 04:13:53;;;;;;;;;;;;;;;22.78;nan;94415.25;2073970;28;1505;-64
2022/04/25 04:14:54;;;;;;;;;;;;;;;22.78;nan;94412.56;2066962;28;1362;-65
2022/04/25 04:15:56;;;;;;;;;;;;;;;22.78;nan;94412.56;2066195;28;905;-64
2022/04/25 04:16:58;;;;;;;;;;;;;;;22.78;nan;94412.56;2067203;28;1505;-64
2022/04/25 04:18:00;;;;;;;;;;;;;;;22.78;nan;94417.94;2066957;28;1563;-65
2022/04/25 04:19:02;;;;;;;;;;;;;;;22.78;nan;94420.63;2068919;28;1575;-66
2022/04/25 04:20:04;;;;;;;;;;;;;;;22.79;nan;94414.19;2066706;28;1355;-63
2022/04/25 04:21:05;;;;;;;;;;;;;;;22.80;nan;94418.53;2066858;28;1052;-65
2022/04/25 04:22:07;;;;;;;;;;;;;;;22.80;nan;94421.19;2066877;28;1124;-64
2022/04/25 04:23:10;;;;;;;;;;;;;;;22.80;nan;94423.88;2058124;28;1029;-64
2022/04/25 04:24:11;;;;;;;;;;;;;;;22.79;nan;94422.22;2066811;28;1268;-67
2022/04/25 04:25:14;;;;;;;;;;;;;;;22.81;nan;94420.13;2059753;28;1786;-66
2022/04/25 04:26:15;;;;;;;;;;;;;;;22.83;nan;94420.72;2065473;28;1927;-66
2022/04/25 04:27:17;;;;;;;;;;;;;;;22.82;nan;94420.94;2074530;28;1020;-64
2022/04/25 04:28:19;;;;;;;;;;;;;;;22.81;nan;94428.16;2074665;28;1126;-63
2022/04/25 04:29:21;;;;;;;;;;;;;;;22.24;nan;94412.03;2074946;28;977;-62
2022/04/25 04:30:23;;;;;;;;;;;;;;;21.15;nan;94421.31;2074250;28;1171;-64
2022/04/25 04:31:24;;;;;;;;;;;;;;;20.91;nan;94416.94;2072558;28;1681;-62
2022/04/25 04:32:29;;;;;;;;;;;;;;;20.76;nan;94410.16;2074914;28;1075;-65
2022/04/25 04:33:31;;;;;;;;;;;;;;;20.34;nan;94410.09;2074314;28;1479;-65
2022/04/25 04:34:36;;;;;;;;;;;;;;;20.30;nan;94419.59;2066064;28;1164;-66
2022/04/25 04:36:59;;;;;;;;;;;;;;;20.52;nan;94424.50;2074036;28;1420;-65
2022/04/25 04:38:00;;;;;;;;;;;;;;;19.98;nan;94428.78;2073459;28;1427;-61
2022/04/25 04:39:02;;;;;;;;;;;;;;;19.72;nan;94427.19;2071277;28;1689;-64
2022/04/25 04:41:25;;;;;;;;;;;;;;;19.50;nan;94432.13;2066673;28;1167;-64
2022/04/25 04:42:27;;;;;;;;;;;;;;;19.44;nan;94429.28;2069865;28;1486;-64
2022/04/25 04:43:28;;;;;;;;;;;;;;;19.35;nan;94424.44;2074784;28;1108;-64
2022/04/25 04:44:30;;;;;;;;;;;;;;;19.30;nan;94421.63;2074620;28;1129;-60
2022/04/25 04:45:32;;;;;;;;;;;;;;;19.59;nan;94420.16;2069705;28;1149;-62
2022/04/25 04:46:34;;;;;;;;;;;;;;;20.09;nan;94420.88;2069098;28;1981;-64
2022/04/25 04:47:35;;;;;;;;;;;;;;;;;;2064663;28;1696;-66
2022/04/25 04:48:37;;;;;;;;;;;;;;;19.90;nan;94427.22;2065223;28;1728;-64
2022/04/25 04:49:38;;;;;;;;;;;;;;;19.39;nan;94431.78;2065334;28;1204;-64
2022/04/25 04:50:40;;;;;;;;;;;;;;;19.35;nan;94425.28;2066120;28;817;-65
2022/04/25 04:51:42;;;;;;;;;;;;;;;19.46;nan;94426.38;2074507;28;1087;-65
2022/04/25 04:52:49;;;;;;;;;;;;;;;19.50;nan;94419.59;2072281;28;1482;-63
2022/04/25 04:53:50;;;;;;;;;;;;;;;19.91;nan;94422.72;2074359;28;919;-62
2022/04/25 04:54:52;;;;;;;;;;;;;;;19.69;nan;94425.81;2074537;28;1070;-64
2022/04/25 04:55:53;;;;;;;;;;;;;;;19.58;nan;94424.69;2074046;28;1673;-65
2022/04/25 04:56:55;;;;;;;;;;;;;;;19.40;nan;94432.59;2069133;28;1604;-60
2022/04/25 04:57:56;;;;;;;;;;;;;;;19.29;nan;94426.16;2070178;28;1121;-65
2022/04/25 04:58:58;;;;;;;;;;;;;;;19.16;nan;94442.22;2073206;28;1164;-65
2022/04/25 05:00:00;;;;;;;;;;;;;;;19.16;nan;94420.91;2072437;28;1416;-64
2022/04/25 05:01:02;;;;;;;;;;;;;;;19.20;nan;94433.56;2070105;28;1525;-66
2022/04/25 05:02:05;;;;;;;;;;;;;;;19.30;nan;94433.09;2061047;28;1657;-65
2022/04/25 05:03:07;;;;;;;;;;;;;;;19.15;nan;94438.75;2064280;28;1609;-66
2022/04/25 05:04:09;;;;;;;;;;;;;;;19.06;nan;94441.88;2073919;28;935;-65
2022/04/25 05:05:10;;;;;;;;;;;;;;;;;;2072943;28;1625;-64
2022/04/25 05:06:12;;;;;;;;;;;;;;;19.05;nan;94434.94;2074715;28;1910;-65
2022/04/25 05:07:14;;;;;;;;;;;;;;;19.10;nan;94438.56;2074154;28;902;-65
2022/04/25 05:08:16;;;;;;;;;;;;;;;19.04;nan;94439.44;2069865;28;970;-65
2022/04/25 05:09:17;;;;;;;;;;;;;;;18.83;nan;94437.13;2068966;28;1493;-62
2022/04/25 05:10:19;;;;;;;;;;;;;;;18.81;nan;94433.84;2073224;28;1522;-64
2022/04/25 05:11:21;;;;;;;;;;;;;;;18.59;nan;94442.13;2074465;28;1615;-65
2022/04/25 05:12:22;;;;;;;;;;;;;;;18.56;nan;94442.56;2073298;28;1675;-66
2022/04/25 05:13:24;;;;;;;;;;;;;;;18.73;nan;94438.41;2074905;28;1097;-65
2022/04/25 05:14:25;;;;;;;;;;;;;;;18.88;nan;94455.94;2070311;28;1528;-65
2022/04/25 05:15:27;;;;;;;;;;;;;;;18.74;nan;94456.00;2066423;28;1128;-66
2022/04/25 05:16:29;;;;;;;;;;;;;;;18.93;nan;94453.44;2068509;28;1701;-62
2022/04/25 05:17:30;;;;;;;;;;;;;;;18.91;nan;94450.97;2070145;28;1725;-63
2022/04/25 05:18:33;;;;;;;;;;;;;;;18.80;nan;94449.00;2074369;28;1030;-65
2022/04/25 05:19:35;;;;;;;;;;;;;;;18.78;nan;94459.06;2068999;28;1630;-66
2022/04/25 05:20:37;;;;;;;;;;;;;;;18.71;nan;94460.94;2068693;28;1676;-65
2022/04/25 05:21:39;;;;;;;;;;;;;;;18.77;nan;94470.72;2065870;28;1005;-65
2022/04/25 05:22:44;;;;;;;;;;;;;;;18.87;nan;94476.41;2066277;28;1494;-66
2022/04/25 05:23:46;;;;;;;;;;;;;;;19.12;nan;94478.28;2066248;28;994;-65
2022/04/25 05:24:48;;;;;;;;;;;;;;;19.31;nan;94471.19;2069954;28;1414;-66
2022/04/25 05:25:50;;;;;;;;;;;;;;;19.66;nan;94484.84;2074377;28;850;-61
2022/04/25 05:26:52;;;;;;;;;;;;;;;19.81;nan;94485.34;2066570;28;1954;-65
2022/04/25 05:27:54;;;;;;;;;;;;;;;19.95;nan;94487.91;2071368;28;1508;-65
2022/04/25 05:28:57;;;;;;;;;;;;;;;20.01;nan;94493.16;2074492;28;1009;-64
2022/04/25 05:29:59;;;;;;;;;;;;;;;19.83;nan;94485.97;2071746;28;1537;-65
2022/04/25 05:31:00;;;;;;;;;;;;;;;19.62;nan;94484.50;2069825;28;1216;-65
2022/04/25 05:32:02;;;;;;;;;;;;;;;19.43;nan;94480.09;2069250;28;1495;-65
2022/04/25 05:33:11;;;;;;;;;;;;;;;19.30;nan;94480.22;2072975;28;1759;-64
2022/04/25 05:34:15;;;;;;;;;;;;;;;19.16;nan;94484.84;2070978;28;1414;-66
2022/04/25 05:35:18;;;;;;;;;;;;;;;18.99;nan;94485.34;2074556;28;1005;-65
2022/04/25 05:36:19;;;;;;;;;;;;;;;19.09;nan;94489.38;2074198;28;1686;-66
2022/04/25 05:37:21;;;;;;;;;;;;;;;19.12;nan;94478.28;2073321;28;1137;-65
2022/04/25 05:38:23;;;;;;;;;;;;;;;19.12;nan;94478.28;2073545;28;1136;-66
2022/04/25 05:39:24;;;;;;;;;;;;;;;19.08;nan;94477.91;2073795;28;1512;-66
2022/04/25 05:40:26;;;;;;;;;;;;;;;19.04;nan;94475.91;2071813;28;1953;-63
2022/04/25 05:41:28;;;;;;;;;;;;;;;19.24;nan;94481.09;2071054;28;1577;-64
2022/04/25 05:42:29;;;;;;;;;;;;;;;19.26;nan;94473.69;2068860;28;1622;-65
2022/04/25 05:43:31;;;;;;;;;;;;;;;19.23;nan;94474.94;2068945;28;1651;-64
2022/04/25 05:44:33;;;;;;;;;;;;;;;19.17;nan;94476.59;2072846;28;1484;-64
2022/04/25 05:45:35;;;;;;;;;;;;;;;19.12;nan;94472.97;2069856;28;1490;-64
2022/04/25 05:46:37;;;;;;;;;;;;;;;19.16;nan;94474.19;2068363;28;1985;-65